createdAt,value
2022-08-07T00:01:44.272Z,77.30
2022-08-07T00:04:06.670Z,76.60
2022-08-07T00:06:45.542Z,76.50
2022-08-07T00:09:21.334Z,76.50
2022-08-07T00:11:55.556Z,76.50
2022-08-07T00:14:30.377Z,76.30
2022-08-07T00:17:01.628Z,77.10
2022-08-07T00:20:00.644Z,76.60
2022-08-07T00:22:24.378Z,76.70
2022-08-07T00:25:03.705Z,76.90
2022-08-07T00:27:52.425Z,77.70
2022-08-07T00:30:27.921Z,77.00
2022-08-07T00:32:56.963Z,77.00
2022-08-07T00:35:26.048Z,77.00
2022-08-07T00:37:54.810Z,77.10
2022-08-07T00:40:36.300Z,77.30
2022-08-07T00:43:09.808Z,77.50
2022-08-07T00:45:41.195Z,77.80
2022-08-07T00:48:11.303Z,78.00
2022-08-07T00:50:50.347Z,78.00
2022-08-07T00:53:20.466Z,77.90
2022-08-07T00:56:02.551Z,77.90
2022-08-07T00:58:32.501Z,78.00
2022-08-07T01:01:04.241Z,78.10
2022-08-07T01:03:55.895Z,78.10
2022-08-07T01:06:21.856Z,78.30
2022-08-07T01:08:53.290Z,78.40
2022-08-07T01:12:23.406Z,78.50
2022-08-07T01:14:11.020Z,78.70
2022-08-07T01:16:46.804Z,78.90
2022-08-07T01:19:18.859Z,78.80
2022-08-07T01:21:55.375Z,78.80
2022-08-07T01:24:30.845Z,78.70
2022-08-07T01:27:01.635Z,78.70
2022-08-07T01:29:34.160Z,78.80
2022-08-07T01:32:12.463Z,79.10
2022-08-07T01:34:47.320Z,79.10
2022-08-07T01:37:22.030Z,79.20
2022-08-07T01:39:53.110Z,79.30
2022-08-07T01:42:39.753Z,79.40
2022-08-07T01:45:22.973Z,79.50
2022-08-07T01:48:20.088Z,79.70
2022-08-07T01:50:58.935Z,79.80
2022-08-07T01:54:09.571Z,80.10
2022-08-07T01:56:29.033Z,80.20
2022-08-07T01:59:09.206Z,80.30
2022-08-07T02:01:59.829Z,80.30
2022-08-07T02:04:56.239Z,80.50
2022-08-07T02:07:50.432Z,80.60
2022-08-07T02:10:29.028Z,80.80
2022-08-07T02:13:02.846Z,81.20
2022-08-07T02:15:40.063Z,81.20
2022-08-07T02:18:12.581Z,81.20
2022-08-07T02:20:43.463Z,81.30
2022-08-07T02:23:23.985Z,81.60
2022-08-07T02:26:26.742Z,81.70
2022-08-07T02:28:44.922Z,81.90
2022-08-07T02:31:28.077Z,82.10
2022-08-07T02:34:10.976Z,82.10
2022-08-07T02:36:46.974Z,82.20
2022-08-07T02:39:43.345Z,82.30
2022-08-07T02:42:16.225Z,82.30
2022-08-07T02:44:49.769Z,82.40
2022-08-07T02:47:25.358Z,82.60
2022-08-07T02:50:02.096Z,82.80
2022-08-07T02:52:44.198Z,82.70
2022-08-07T02:55:28.445Z,82.90
2022-08-07T02:58:17.514Z,83.10
2022-08-07T03:00:53.341Z,83.20
2022-08-07T03:03:24.645Z,83.40
2022-08-07T03:05:59.093Z,83.60
2022-08-07T03:08:29.297Z,83.80
2022-08-07T03:11:00.238Z,84.20
2022-08-07T03:13:39.136Z,84.30
2022-08-07T03:16:23.086Z,84.60
2022-08-07T03:18:57.366Z,85.40
2022-08-07T03:21:25.735Z,85.10
2022-08-07T03:24:20.159Z,85.40
2022-08-07T03:26:58.056Z,85.50
2022-08-07T03:29:37.467Z,85.70
2022-08-07T03:32:13.400Z,85.90
2022-08-07T03:34:47.447Z,86.30
2022-08-07T03:37:32.516Z,86.50
2022-08-07T03:40:15.589Z,86.70
2022-08-07T03:42:45.789Z,86.80
2022-08-07T03:45:30.381Z,87.80
2022-08-07T03:48:09.962Z,87.30
2022-08-07T03:50:39.946Z,87.40
2022-08-07T03:53:12.269Z,87.40
2022-08-07T03:55:52.979Z,87.50
2022-08-07T03:59:07.997Z,87.90
2022-08-07T04:01:27.966Z,88.00
2022-08-07T04:03:56.938Z,88.10
2022-08-07T04:06:37.238Z,88.20
2022-08-07T04:09:15.890Z,88.30
2022-08-07T04:12:25.319Z,88.20
2022-08-07T04:14:46.002Z,88.30
2022-08-07T04:17:21.818Z,88.30
2022-08-07T04:19:55.179Z,88.40
2022-08-07T04:22:29.572Z,89.30
2022-08-07T04:25:02.542Z,88.70
2022-08-07T04:27:35.460Z,88.70
2022-08-07T04:30:35.789Z,88.70
2022-08-07T04:33:09.943Z,88.70
2022-08-07T04:35:50.577Z,88.80
2022-08-07T04:38:22.995Z,89.50
2022-08-07T04:40:53.149Z,88.90
2022-08-07T04:44:11.964Z,88.80
2022-08-07T04:46:34.708Z,88.70
2022-08-07T04:49:24.744Z,88.80
2022-08-07T04:52:07.208Z,88.80
2022-08-07T04:54:42.807Z,88.90
2022-08-07T04:58:16.217Z,88.80
2022-08-07T05:00:32.378Z,88.80
2022-08-07T05:03:31.190Z,88.80
2022-08-07T05:06:19.612Z,88.70
2022-08-07T05:09:00.831Z,88.90
2022-08-07T05:11:58.884Z,88.90
2022-08-07T05:14:52.665Z,89.00
2022-08-07T05:17:52.869Z,88.90
2022-08-07T05:20:14.611Z,88.90
2022-08-07T05:22:50.421Z,89.10
2022-08-07T05:25:25.769Z,89.20
2022-08-07T05:28:20.339Z,89.30
2022-08-07T05:30:53.413Z,89.50
2022-08-07T05:33:23.346Z,89.20
2022-08-07T05:35:55.157Z,89.10
2022-08-07T05:39:00.643Z,89.70
2022-08-07T05:41:18.312Z,88.80
2022-08-07T05:44:12.118Z,88.60
2022-08-07T05:46:47.329Z,88.40
2022-08-07T05:49:27.722Z,88.20
2022-08-07T05:52:11.773Z,88.30
2022-08-07T05:54:53.890Z,88.00
2022-08-07T05:57:29.879Z,87.90
2022-08-07T06:00:01.762Z,87.70
2022-08-07T06:02:41.744Z,87.00
2022-08-07T06:05:15.639Z,86.80
2022-08-07T06:08:29.576Z,87.50
2022-08-07T06:10:40.177Z,86.40
2022-08-07T06:13:13.463Z,86.40
2022-08-07T06:15:44.267Z,86.30
2022-08-07T06:18:21.397Z,86.10
2022-08-07T06:22:14.940Z,85.10
2022-08-07T06:24:37.691Z,85.00
2022-08-07T06:26:31.702Z,85.00
2022-08-07T06:29:01.621Z,83.90
2022-08-07T06:31:38.846Z,83.80
2022-08-07T06:34:21.621Z,83.10
2022-08-07T06:36:52.162Z,82.30
2022-08-07T06:40:17.214Z,81.90
2022-08-07T06:42:19.142Z,81.30
2022-08-07T06:45:11.606Z,80.90
2022-08-07T06:47:47.969Z,80.60
2022-08-07T06:50:25.890Z,80.70
2022-08-07T06:52:55.747Z,80.10
2022-08-07T06:56:00.553Z,79.80
2022-08-07T06:58:21.373Z,80.10
2022-08-07T07:01:01.047Z,79.70
2022-08-07T07:03:47.492Z,80.20
2022-08-07T07:06:26.298Z,79.50
2022-08-07T07:09:16.630Z,79.20
2022-08-07T07:12:16.666Z,79.20
2022-08-07T07:14:59.096Z,78.90
2022-08-07T07:17:39.109Z,78.30
2022-08-07T07:20:17.130Z,78.20
2022-08-07T07:24:05.358Z,78.30
2022-08-07T07:26:34.613Z,78.10
2022-08-07T07:28:48.504Z,77.80
2022-08-07T07:31:30.484Z,77.70
2022-08-07T07:34:21.977Z,77.20
2022-08-07T07:37:14.348Z,77.70
2022-08-07T07:39:52.434Z,77.20
2022-08-07T07:42:32.506Z,76.90
2022-08-07T07:45:04.634Z,77.10
2022-08-07T07:47:42.715Z,76.60
2022-08-07T07:50:33.757Z,77.00
2022-08-07T07:53:20.462Z,77.00
2022-08-07T07:55:57.855Z,76.90
2022-08-07T07:58:37.064Z,76.30
2022-08-07T08:02:01.633Z,76.00
2022-08-07T08:04:10.640Z,75.90
2022-08-07T08:06:50.877Z,76.30
2022-08-07T08:09:23.946Z,76.10
2022-08-07T08:12:02.885Z,75.70
2022-08-07T08:14:36.621Z,76.30
2022-08-07T08:17:55.599Z,76.80
2022-08-07T08:20:17.030Z,77.00
2022-08-07T08:23:10.174Z,77.00
2022-08-07T08:26:03.420Z,77.50
2022-08-07T08:28:44.755Z,76.90
2022-08-07T08:31:30.237Z,77.20
2022-08-07T08:34:12.426Z,77.20
2022-08-07T08:36:58.408Z,76.70
2022-08-07T08:39:39.635Z,77.50
2022-08-07T08:42:25.704Z,77.30
2022-08-07T08:45:04.776Z,77.30
2022-08-07T08:47:51.907Z,76.30
2022-08-07T08:50:34.770Z,78.20
2022-08-07T08:53:21.718Z,77.80
2022-08-07T08:55:58.643Z,78.10
2022-08-07T08:58:36.771Z,77.90
2022-08-07T09:01:15.197Z,77.60
2022-08-07T09:03:56.897Z,77.60
2022-08-07T09:06:40.250Z,77.10
2022-08-07T09:09:30.003Z,78.00
2022-08-07T09:12:30.251Z,78.30
2022-08-07T09:16:22.034Z,78.40
2022-08-07T09:18:22.786Z,77.90
2022-08-07T09:21:01.062Z,77.10
2022-08-07T09:24:32.814Z,77.60
2022-08-07T09:26:53.263Z,77.70
2022-08-07T09:30:03.804Z,77.20
2022-08-07T09:32:32.544Z,77.40
2022-08-07T09:36:04.845Z,77.00
2022-08-07T09:38:10.426Z,76.80
2022-08-07T09:40:58.729Z,77.10
2022-08-07T09:44:05.705Z,77.10
2022-08-07T09:47:50.721Z,76.50
2022-08-07T09:50:02.859Z,77.20
2022-08-07T09:52:40.702Z,77.10
2022-08-07T09:55:17.436Z,75.90
2022-08-07T09:58:48.758Z,75.20
2022-08-07T10:01:51.391Z,75.20
2022-08-07T10:04:38.435Z,75.30
2022-08-07T10:07:52.355Z,73.70
2022-08-07T10:10:43.623Z,74.00
2022-08-07T10:14:00.075Z,73.10
2022-08-07T10:16:53.721Z,73.60
2022-08-07T10:19:40.868Z,70.60
2022-08-07T10:22:36.694Z,71.20
2022-08-07T10:25:20.859Z,71.70
2022-08-07T10:28:06.631Z,71.30
2022-08-07T10:30:54.663Z,70.80
2022-08-07T10:34:05.038Z,70.20
2022-08-07T10:36:49.112Z,68.90
2022-08-07T10:39:42.134Z,67.70
2022-08-07T10:42:36.530Z,68.20
2022-08-07T10:45:19.340Z,67.60
2022-08-07T10:47:56.657Z,63.20
2022-08-07T10:50:38.585Z,62.40
2022-08-07T10:53:28.686Z,63.60
2022-08-07T10:56:30.958Z,63.00
2022-08-07T10:59:10.612Z,63.60
2022-08-07T11:01:52.069Z,59.50
2022-08-07T11:04:51.826Z,58.00
2022-08-07T11:08:00.321Z,58.10
2022-08-07T11:10:27.558Z,59.10
2022-08-07T11:13:03.314Z,60.90
2022-08-07T11:15:36.881Z,61.90
2022-08-07T11:18:12.551Z,62.20
2022-08-07T11:20:47.502Z,63.10
2022-08-07T11:23:30.892Z,63.30
2022-08-07T11:26:14.381Z,62.90
2022-08-07T11:28:55.351Z,62.10
2022-08-07T11:31:35.119Z,61.70
2022-08-07T11:34:17.050Z,61.50
2022-08-07T11:37:03.338Z,60.20
2022-08-07T11:40:00.372Z,60.80
2022-08-07T11:42:41.837Z,60.80
2022-08-07T11:45:20.473Z,61.70
2022-08-07T11:48:29.787Z,62.80
2022-08-07T11:51:41.644Z,62.70
2022-08-07T11:54:29.614Z,61.60
2022-08-07T11:57:12.710Z,61.10
2022-08-07T12:00:10.988Z,60.20
2022-08-07T12:03:41.955Z,59.60
2022-08-07T12:06:37.693Z,61.20
2022-08-07T12:09:16.546Z,61.40
2022-08-07T12:12:10.638Z,60.80
2022-08-07T12:15:00.597Z,60.00
2022-08-07T12:17:58.574Z,59.80
2022-08-07T12:20:35.220Z,59.80
2022-08-07T12:23:17.950Z,59.50
2022-08-07T12:26:03.054Z,60.60
2022-08-07T12:28:52.841Z,59.80
2022-08-07T12:31:52.746Z,60.00
2022-08-07T12:34:21.540Z,58.90
2022-08-07T12:36:56.063Z,58.90
2022-08-07T12:39:42.807Z,58.80
2022-08-07T12:42:13.592Z,58.90
2022-08-07T12:44:45.084Z,58.10
2022-08-07T12:47:26.812Z,57.80
2022-08-07T12:50:04.681Z,57.20
2022-08-07T12:52:46.238Z,57.10
2022-08-07T12:55:24.931Z,57.20
2022-08-07T12:58:17.934Z,56.20
2022-08-07T13:00:54.981Z,56.20
2022-08-07T13:04:02.085Z,56.20
2022-08-07T13:07:01.153Z,54.80
2022-08-07T13:10:19.534Z,55.80
2022-08-07T13:12:47.499Z,56.10
2022-08-07T13:15:29.823Z,55.20
2022-08-07T13:18:26.432Z,55.40
2022-08-07T13:21:07.295Z,55.50
2022-08-07T13:24:01.409Z,55.50
2022-08-07T13:26:41.864Z,55.00
2022-08-07T13:29:18.998Z,54.90
2022-08-07T13:31:57.357Z,55.10
2022-08-07T13:34:36.434Z,55.20
2022-08-07T13:37:19.845Z,54.20
2022-08-07T13:40:35.644Z,54.00
2022-08-07T13:42:49.536Z,54.60
2022-08-07T13:46:11.496Z,55.10
2022-08-07T13:48:10.426Z,54.40
2022-08-07T13:51:00.261Z,54.90
2022-08-07T13:53:59.590Z,54.20
2022-08-07T13:56:36.069Z,54.20
2022-08-07T13:59:13.422Z,54.60
2022-08-07T14:01:55.667Z,54.60
2022-08-07T14:04:35.759Z,54.50
2022-08-07T14:07:09.289Z,54.10
2022-08-07T14:10:12.228Z,54.30
2022-08-07T14:12:41.831Z,53.70
2022-08-07T14:15:18.746Z,53.20
2022-08-07T14:18:24.099Z,53.60
2022-08-07T14:22:41.004Z,54.10
2022-08-07T14:23:31.741Z,53.50
2022-08-07T14:26:29.688Z,53.70
2022-08-07T14:30:02.733Z,53.20
2022-08-07T14:31:57.972Z,52.70
2022-08-07T14:34:30.313Z,52.10
2022-08-07T14:37:01.933Z,52.90
2022-08-07T14:40:16.043Z,53.10
2022-08-07T14:42:31.531Z,53.60
2022-08-07T14:45:21.444Z,52.80
2022-08-07T14:50:45.752Z,53.10
2022-08-07T14:53:15.167Z,52.90
2022-08-07T14:58:38.705Z,53.10
2022-08-07T15:01:21.649Z,52.70
2022-08-07T15:03:54.399Z,52.70
2022-08-07T15:06:25.625Z,52.40
2022-08-07T15:08:55.869Z,52.50
2022-08-07T15:11:54.504Z,52.20
2022-08-07T15:14:25.394Z,51.90
2022-08-07T15:17:01.888Z,51.80
2022-08-07T15:22:33.450Z,51.80
2022-08-07T15:28:33.019Z,52.00
2022-08-07T15:31:04.891Z,51.10
2022-08-07T15:37:03.357Z,51.30
2022-08-07T15:39:14.550Z,51.40
2022-08-07T15:44:52.149Z,50.80
2022-08-07T15:50:37.883Z,50.80
2022-08-07T15:53:11.278Z,51.00
2022-08-07T15:55:53.506Z,50.50
2022-08-07T15:58:36.989Z,50.60
2022-08-07T16:01:15.430Z,50.80
2022-08-07T16:03:58.220Z,50.80
2022-08-07T16:06:31.306Z,50.60
2022-08-07T16:09:03.141Z,50.40
2022-08-07T16:11:53.050Z,49.50
2022-08-07T16:14:37.684Z,50.00
2022-08-07T16:18:02.851Z,50.00
2022-08-07T16:20:38.992Z,50.00
2022-08-07T16:23:58.498Z,50.10
2022-08-07T16:26:59.328Z,50.20
2022-08-07T16:30:17.636Z,50.60
2022-08-07T16:32:46.539Z,50.30
2022-08-07T16:35:51.841Z,50.20
2022-08-07T16:38:59.867Z,49.60
2022-08-07T16:41:48.566Z,49.40
2022-08-07T16:45:04.105Z,49.20
2022-08-07T16:47:51.462Z,49.70
2022-08-07T16:51:07.379Z,49.80
2022-08-07T16:54:09.039Z,50.20
2022-08-07T16:56:56.995Z,49.60
2022-08-07T16:59:46.731Z,49.40
2022-08-07T17:02:53.276Z,49.40
2022-08-07T17:06:19.904Z,49.70
2022-08-07T17:09:08.671Z,49.80
2022-08-07T17:12:05.303Z,49.60
2022-08-07T17:14:35.096Z,49.40
2022-08-07T17:17:09.767Z,49.60
2022-08-07T17:20:02.884Z,49.10
2022-08-07T17:22:42.553Z,48.40
2022-08-07T17:25:19.389Z,48.70
2022-08-07T17:28:01.340Z,48.00
2022-08-07T17:30:57.581Z,48.20
2022-08-07T17:34:08.677Z,48.10
2022-08-07T17:36:26.447Z,47.10
2022-08-07T17:39:02.330Z,46.30
2022-08-07T17:42:04.347Z,46.60
2022-08-07T17:44:49.981Z,46.60
2022-08-07T17:47:38.002Z,46.80
2022-08-07T17:50:19.019Z,46.70
2022-08-07T17:52:53.952Z,47.40
2022-08-07T17:56:00.998Z,47.50
2022-08-07T17:58:31.403Z,47.90
2022-08-07T18:01:21.536Z,47.90
2022-08-07T18:04:07.747Z,48.00
2022-08-07T18:06:43.689Z,48.30
2022-08-07T18:09:19.416Z,48.50
2022-08-07T18:12:19.894Z,48.90
2022-08-07T18:15:08.343Z,49.00
2022-08-07T18:18:44.661Z,49.20
2022-08-07T18:21:07.959Z,49.40
2022-08-07T18:23:50.798Z,49.60
2022-08-07T18:26:44.329Z,50.00
2022-08-07T18:30:05.887Z,50.30
2022-08-07T18:32:22.347Z,50.70
2022-08-07T18:35:16.815Z,51.00
2022-08-07T18:38:58.481Z,51.20
2022-08-07T18:41:07.944Z,51.40
2022-08-07T18:43:49.498Z,51.70
2022-08-07T18:46:29.817Z,51.70
2022-08-07T18:50:31.133Z,52.10
2022-08-07T18:52:37.376Z,52.30
2022-08-07T18:55:43.193Z,52.60
2022-08-07T18:58:15.164Z,53.60
2022-08-07T19:00:54.398Z,53.30
2022-08-07T19:03:37.948Z,53.50
2022-08-07T19:06:17.222Z,54.00
2022-08-07T19:09:09.029Z,54.30
2022-08-07T19:12:04.689Z,54.60
2022-08-07T19:16:03.087Z,55.10
2022-08-07T19:18:13.478Z,55.30
2022-08-07T19:21:08.875Z,55.70
2022-08-07T19:23:58.612Z,56.00
2022-08-07T19:27:01.910Z,56.30
2022-08-07T19:31:02.940Z,56.50
2022-08-07T19:32:26.942Z,56.50
2022-08-07T19:35:03.049Z,57.00
2022-08-07T19:37:57.175Z,57.80
2022-08-07T19:40:31.022Z,58.20
2022-08-07T19:43:08.688Z,58.70
2022-08-07T19:46:01.289Z,58.70
2022-08-07T19:48:42.633Z,58.70
2022-08-07T19:51:20.237Z,58.90
2022-08-07T19:54:32.176Z,58.90
2022-08-07T19:58:02.555Z,59.20
2022-08-07T19:59:54.185Z,59.40
2022-08-07T20:02:31.029Z,59.40
2022-08-07T20:05:03.825Z,59.50
2022-08-07T20:07:47.855Z,59.60
2022-08-07T20:10:35.746Z,59.50
2022-08-07T20:13:23.627Z,59.70
2022-08-07T20:15:59.122Z,60.40
2022-08-07T20:18:32.866Z,60.70
2022-08-07T20:21:14.345Z,61.10
2022-08-07T20:24:00.299Z,61.20
2022-08-07T20:26:38.965Z,61.30
2022-08-07T20:29:46.563Z,61.50
2022-08-07T20:32:11.581Z,61.70
2022-08-07T20:34:54.857Z,61.80
2022-08-07T20:37:26.380Z,61.90
2022-08-07T20:40:05.071Z,62.00
2022-08-07T20:42:56.122Z,62.30
2022-08-07T20:45:33.678Z,62.60
2022-08-07T20:48:25.895Z,62.70
2022-08-07T20:50:59.535Z,62.80
2022-08-07T20:54:03.668Z,62.90
2022-08-07T20:56:20.129Z,63.10
2022-08-07T20:58:58.665Z,63.40
2022-08-07T21:01:29.739Z,63.60
2022-08-07T21:04:22.687Z,63.70
2022-08-07T21:06:57.109Z,63.80
2022-08-07T21:09:51.761Z,64.00
2022-08-07T21:12:28.690Z,64.30
2022-08-07T21:15:03.028Z,64.20
2022-08-07T21:18:09.015Z,64.60
2022-08-07T21:20:30.255Z,64.80
2022-08-07T21:23:07.672Z,64.90
2022-08-07T21:25:56.287Z,65.00
2022-08-07T21:28:48.705Z,65.50
2022-08-07T21:31:49.196Z,66.20
2022-08-07T21:34:19.237Z,66.40
2022-08-07T21:36:54.715Z,66.30
2022-08-07T21:39:45.110Z,66.20
2022-08-07T21:42:42.964Z,66.10
2022-08-07T21:46:04.843Z,66.10
2022-08-07T21:48:27.682Z,66.00
2022-08-07T21:51:20.306Z,66.00
2022-08-07T21:54:02.348Z,66.20
2022-08-07T21:56:46.986Z,65.50
2022-08-07T22:00:02.852Z,65.20
2022-08-07T22:02:30.376Z,64.60
2022-08-07T22:05:01.179Z,64.40
2022-08-07T22:07:58.129Z,64.50
2022-08-07T22:10:24.838Z,64.50
2022-08-07T22:12:56.722Z,64.60
2022-08-07T22:16:41.927Z,64.60
2022-08-07T22:18:36.448Z,64.50
2022-08-07T22:21:16.633Z,64.90
2022-08-07T22:23:53.669Z,65.10
2022-08-07T22:26:29.783Z,65.30
2022-08-07T22:29:09.042Z,65.60
2022-08-07T22:31:59.955Z,65.80
2022-08-07T22:34:53.088Z,66.20
2022-08-07T22:38:04.252Z,67.20
2022-08-07T22:40:26.426Z,67.10
2022-08-07T22:43:04.170Z,67.70
2022-08-07T22:46:40.854Z,68.40
2022-08-07T22:48:55.399Z,68.90
2022-08-07T22:52:00.819Z,69.10
2022-08-07T22:55:17.166Z,69.10
2022-08-07T22:58:27.977Z,69.50
2022-08-07T23:01:24.057Z,69.90
2022-08-07T23:04:04.861Z,70.00
2022-08-07T23:07:39.816Z,70.90
2022-08-07T23:10:36.477Z,70.60
2022-08-07T23:13:14.312Z,71.10
2022-08-07T23:16:05.609Z,71.20
2022-08-07T23:19:15.948Z,71.40
2022-08-07T23:21:52.371Z,71.70
2022-08-07T23:24:38.604Z,71.90
2022-08-07T23:27:34.534Z,71.90
2022-08-07T23:30:38.787Z,72.10
2022-08-07T23:34:34.908Z,72.30
2022-08-07T23:36:17.391Z,72.70
2022-08-07T23:39:08.505Z,73.00
2022-08-07T23:42:04.838Z,73.10
2022-08-07T23:44:56.057Z,73.50
2022-08-07T23:47:51.679Z,73.60
2022-08-07T23:50:33.467Z,73.70
2022-08-07T23:53:22.908Z,74.10
2022-08-07T23:56:21.157Z,74.30
2022-08-07T23:58:55.778Z,74.50
